Time;durP1;ratioP1;P1;durP2;ratioP2;P2;SDS_P1;SDS_P2;PMS_P1;PMS_P2;Temp;Humidity;BMP_temperature;BMP_pressure;BME280_temperature;BME280_humidity;BME280_pressure;Samples;Min_cycle;Max_cycle;Signal;HPM_P1;HPM_P2
2022/11/13 00:00:40;;;;;;;1.80;1.00;;;17.60;70.90;;;;;;4996387;28;20542;-42
2022/11/13 00:03:05;;;;;;;1.13;1.00;;;17.70;70.90;;;;;;5013997;28;20050;-42
2022/11/13 00:05:31;;;;;;;1.23;1.10;;;17.60;70.90;;;;;;5006675;28;20096;-41
2022/11/13 00:07:56;;;;;;;1.08;1.08;;;17.70;70.90;;;;;;5004397;28;20046;-41
2022/11/13 00:10:22;;;;;;;1.40;1.30;;;17.70;70.90;;;;;;5008287;28;20156;-41
2022/11/13 00:12:47;;;;;;;0.98;0.90;;;17.70;70.80;;;;;;5004542;28;20052;-42
2022/11/13 00:15:13;;;;;;;1.00;1.00;;;17.70;70.80;;;;;;5005806;28;20045;-41
2022/11/13 00:17:39;;;;;;;1.23;1.13;;;17.70;70.90;;;;;;5007774;28;20518;-43
2022/11/13 00:20:05;;;;;;;1.05;1.05;;;17.70;70.90;;;;;;5000145;28;20038;-41
2022/11/13 00:22:30;;;;;;;1.20;1.20;;;17.70;70.80;;;;;;5004436;28;20104;-41
2022/11/13 00:24:56;;;;;;;1.17;1.17;;;17.70;70.80;;;;;;5009733;28;20092;-41
2022/11/13 00:27:21;;;;;;;1.40;1.02;;;17.70;70.80;;;;;;5006274;28;20045;-41
2022/11/13 00:29:47;;;;;;;1.23;1.23;;;17.70;70.70;;;;;;5010705;28;20470;-45
2022/11/13 00:32:12;;;;;;;0.93;0.93;;;17.70;70.70;;;;;;5013915;28;20042;-41
2022/11/13 00:34:38;;;;;;;1.00;1.00;;;17.60;71.50;;;;;;5017443;28;20042;-40
2022/11/13 00:37:03;;;;;;;0.85;0.85;;;17.70;70.80;;;;;;5007883;28;20673;-43
2022/11/13 00:39:29;;;;;;;1.17;1.17;;;17.60;70.80;;;;;;5016160;28;20065;-43
2022/11/13 00:41:54;;;;;;;1.17;1.08;;;17.60;70.80;;;;;;5014240;28;20053;-40
2022/11/13 00:44:20;;;;;;;1.10;1.10;;;17.60;70.90;;;;;;5018883;28;20041;-21
2022/11/13 00:46:46;;;;;;;1.02;1.02;;;17.60;71.00;;;;;;5000422;28;20046;-21
2022/11/13 00:49:12;;;;;;;1.20;1.10;;;17.60;70.80;;;;;;4997628;28;20038;-21
2022/11/13 00:51:37;;;;;;;1.10;1.10;;;17.60;70.90;;;;;;5003486;28;20972;-22
2022/11/13 00:54:03;;;;;;;1.13;1.13;;;17.70;70.90;;;;;;5001693;28;20520;-24
2022/11/13 00:56:28;;;;;;;2.38;1.10;;;17.60;70.90;;;;;;5001424;28;20046;-22
2022/11/13 00:58:54;;;;;;;1.23;1.20;;;17.70;70.70;;;;;;5001695;28;20593;-22
2022/11/13 01:01:20;;;;;;;1.00;1.00;;;17.60;70.70;;;;;;4995453;28;20057;-22
2022/11/13 01:03:45;;;;;;;1.05;1.05;;;17.70;70.80;;;;;;5005156;28;20079;-23
2022/11/13 01:06:13;;;;;;;0.90;0.90;;;17.70;70.70;;;;;;5002008;28;20108;-20
2022/11/13 01:08:39;;;;;;;1.35;1.17;;;17.70;70.70;;;;;;5024636;28;20053;-21
2022/11/13 01:11:15;;;;;;;1.17;1.17;;;17.70;70.80;;;;;;5004792;28;20057;-30
2022/11/13 01:13:42;;;;;;;1.25;1.00;;;17.60;70.70;;;;;;5001812;28;20596;-21
2022/11/13 01:16:08;;;;;;;1.00;1.00;;;17.70;70.70;;;;;;5008869;28;20061;-21
2022/11/13 01:18:34;;;;;;;1.40;1.30;;;17.60;70.70;;;;;;5005411;28;20046;-21
2022/11/13 01:21:11;;;;;;;1.10;1.10;;;17.70;70.90;;;;;;4998496;28;20054;-21
2022/11/13 01:23:37;;;;;;;1.02;1.02;;;17.60;70.90;;;;;;5011566;28;20049;-22
2022/11/13 01:26:12;;;;;;;1.00;1.00;;;17.60;70.90;;;;;;5012126;28;20046;-21
2022/11/13 01:28:37;;;;;;;1.10;1.10;;;17.60;70.90;;;;;;5011614;28;20132;-21
2022/11/13 01:31:07;;;;;;;1.00;1.00;;;17.60;70.90;;;;;;5010784;28;20145;-21
2022/11/13 01:33:33;;;;;;;1.20;1.20;;;17.60;71.10;;;;;;4989980;28;20046;-23
2022/11/13 01:36:00;;;;;;;1.10;1.10;;;17.60;71.10;;;;;;4993344;28;20101;-21
2022/11/13 01:38:26;;;;;;;1.00;1.00;;;17.60;71.00;;;;;;4991327;28;20062;-30
2022/11/13 01:40:51;;;;;;;1.13;1.13;;;17.60;71.00;;;;;;4996111;28;20042;-21
2022/11/13 01:43:36;;;;;;;1.10;1.10;;;17.60;71.00;;;;;;4994076;28;20050;-28
2022/11/13 01:46:06;;;;;;;;;;;17.60;71.00;;;;;;4994063;28;20054;-21
2022/11/13 01:48:37;;;;;;;0.90;0.90;;;17.60;71.00;;;;;;4990752;28;19921;-22
2022/11/13 01:51:11;;;;;;;0.90;0.90;;;17.60;70.80;;;;;;5001613;28;20560;-23
2022/11/13 01:53:36;;;;;;;0.90;0.90;;;17.60;70.80;;;;;;5011584;28;20057;-23
2022/11/13 01:56:02;;;;;;;0.90;0.90;;;17.60;70.80;;;;;;5011178;28;20046;-22
2022/11/13 01:58:27;;;;;;;0.90;0.90;;;17.60;70.70;;;;;;5010899;28;20102;-21
2022/11/13 02:00:53;;;;;;;0.82;0.82;;;17.60;70.90;;;;;;5006493;28;20038;-21
2022/11/13 02:03:19;;;;;;;1.05;1.05;;;17.60;70.70;;;;;;5012631;28;20041;-21
2022/11/13 02:05:45;;;;;;;1.02;1.02;;;17.60;70.70;;;;;;5010121;28;20060;-21
2022/11/13 02:08:10;;;;;;;0.98;0.98;;;17.60;70.70;;;;;;4999541;28;20065;-22
2022/11/13 02:10:36;;;;;;;1.23;1.00;;;17.60;70.70;;;;;;5005843;28;20041;-21
2022/11/13 02:13:01;;;;;;;1.00;1.00;;;17.60;70.80;;;;;;5011770;28;20450;-23
2022/11/13 02:15:27;;;;;;;1.17;1.17;;;17.60;70.70;;;;;;5009743;28;20069;-21
2022/11/13 02:17:54;;;;;;;0.90;0.90;;;17.60;71.50;;;;;;4987020;28;20042;-22
2022/11/13 02:20:34;;;;;;;0.85;0.85;;;17.60;70.80;;;;;;4990869;28;20062;-21
2022/11/13 02:23:20;;;;;;;1.23;1.10;;;17.50;70.90;;;;;;5007725;28;20069;-21
2022/11/13 02:25:47;;;;;;;0.95;0.95;;;17.50;70.90;;;;;;4997513;28;20498;-21
2022/11/13 02:28:12;;;;;;;0.80;0.80;;;17.50;70.90;;;;;;5028495;28;20045;-21
2022/11/13 02:30:38;;;;;;;1.30;1.30;;;17.50;70.80;;;;;;5011221;28;20104;-24
2022/11/13 02:33:19;;;;;;;0.98;0.98;;;17.50;70.80;;;;;;4998770;28;20034;-22
2022/11/13 02:35:45;;;;;;;0.90;0.90;;;17.50;70.80;;;;;;4992580;28;20046;-22
2022/11/13 02:38:11;;;;;;;1.10;1.10;;;17.50;70.90;;;;;;4989975;28;20141;-22
2022/11/13 02:40:37;;;;;;;1.77;1.00;;;17.50;71.00;;;;;;4996983;28;20112;-21
2022/11/13 02:43:03;;;;;;;0.75;0.75;;;17.50;71.10;;;;;;4991765;28;20141;-21
2022/11/13 02:45:29;;;;;;;0.85;0.85;;;17.50;71.00;;;;;;4990638;28;20113;-22
2022/11/13 02:47:54;;;;;;;0.80;0.80;;;17.40;71.10;;;;;;4986910;28;20506;-25
2022/11/13 02:50:20;;;;;;;2.10;1.00;;;17.50;71.20;;;;;;4991803;28;20052;-25
2022/11/13 02:52:45;;;;;;;1.23;0.88;;;17.40;71.10;;;;;;5003687;28;20524;-21
2022/11/13 02:55:11;;;;;;;0.90;0.90;;;17.40;71.10;;;;;;5011406;28;20490;-21
2022/11/13 02:57:37;;;;;;;1.20;1.20;;;17.40;71.20;;;;;;5008087;28;20775;-22
2022/11/13 03:00:03;;;;;;;0.95;0.95;;;17.40;71.30;;;;;;5006616;28;20042;-22
2022/11/13 03:02:29;;;;;;;1.10;1.10;;;17.40;71.20;;;;;;5004314;28;20040;-21
2022/11/13 03:04:54;;;;;;;0.98;0.98;;;17.40;71.30;;;;;;5003684;28;20037;-22
2022/11/13 03:07:20;;;;;;;1.58;1.40;;;17.40;71.20;;;;;;4993823;28;20053;-22
2022/11/13 03:09:45;;;;;;;1.20;1.20;;;17.40;71.20;;;;;;5002013;28;20577;-22
2022/11/13 03:12:11;;;;;;;1.00;1.00;;;17.40;71.40;;;;;;4997398;28;20380;-22
2022/11/13 03:14:36;;;;;;;1.08;1.08;;;17.40;71.40;;;;;;4991452;28;20046;-21
2022/11/13 03:17:02;;;;;;;1.08;1.08;;;17.40;71.30;;;;;;4989630;28;20094;-21
2022/11/13 03:19:28;;;;;;;1.10;1.08;;;17.40;71.30;;;;;;4985383;28;20100;-22
2022/11/13 03:21:53;;;;;;;1.02;1.02;;;17.40;71.40;;;;;;4993107;28;20057;-21
2022/11/13 03:24:19;;;;;;;0.93;0.93;;;17.40;71.40;;;;;;4987262;28;20514;-20
2022/11/13 03:26:44;;;;;;;1.20;1.20;;;17.40;71.40;;;;;;4994304;28;20525;-24
2022/11/13 03:29:10;;;;;;;0.85;0.85;;;17.30;71.40;;;;;;4992209;28;20590;-21
2022/11/13 03:31:36;;;;;;;1.42;1.42;;;17.30;71.40;;;;;;5012019;28;20445;-23
2022/11/13 03:34:01;;;;;;;0.90;0.90;;;17.40;71.40;;;;;;5017399;28;20046;-21
2022/11/13 03:36:27;;;;;;;0.90;0.90;;;17.30;71.40;;;;;;5006313;28;20056;-22
2022/11/13 03:38:52;;;;;;;0.93;0.93;;;17.30;71.40;;;;;;4999621;28;20062;-21
2022/11/13 03:41:18;;;;;;;1.00;1.00;;;17.30;71.40;;;;;;5003860;28;20056;-22
2022/11/13 03:43:44;;;;;;;0.98;0.98;;;17.30;71.30;;;;;;5011280;28;20402;-21
2022/11/13 03:46:09;;;;;;;1.10;1.10;;;17.30;71.30;;;;;;4999443;28;20551;-21
2022/11/13 03:48:35;;;;;;;1.00;1.00;;;17.30;71.40;;;;;;5005486;28;20091;-22
2022/11/13 03:51:01;;;;;;;0.85;0.85;;;17.30;71.40;;;;;;5003454;28;20037;-21
2022/11/13 03:53:26;;;;;;;0.70;0.70;;;17.30;71.30;;;;;;5004539;28;20048;-22
2022/11/13 03:55:52;;;;;;;1.10;1.10;;;17.30;71.30;;;;;;5013962;28;20050;-22
2022/11/13 03:58:17;;;;;;;1.15;1.15;;;17.30;71.30;;;;;;4995635;28;20052;-22
2022/11/13 04:00:43;;;;;;;1.00;1.00;;;17.30;72.20;;;;;;4990830;28;20045;-22
2022/11/13 04:03:09;;;;;;;1.10;1.00;;;17.30;71.30;;;;;;5011140;28;20045;-22
2022/11/13 04:05:34;;;;;;;0.90;0.90;;;17.30;71.40;;;;;;5016339;28;20498;-26
2022/11/13 04:08:00;;;;;;;1.00;1.00;;;17.40;71.40;;;;;;5014773;28;20099;-22
2022/11/13 04:10:26;;;;;;;1.00;1.00;;;17.30;71.40;;;;;;4999819;28;20064;-21
2022/11/13 04:12:51;;;;;;;1.30;1.20;;;17.30;71.30;;;;;;4995233;28;20408;-22
2022/11/13 04:15:17;;;;;;;0.80;0.80;;;17.30;72.20;;;;;;4994120;28;20057;-24
2022/11/13 04:17:42;;;;;;;0.90;0.90;;;17.30;71.40;;;;;;5017362;28;20397;-21
2022/11/13 04:20:08;;;;;;;1.20;1.00;;;17.30;71.30;;;;;;4999404;28;20038;-21
2022/11/13 04:22:34;;;;;;;0.95;0.95;;;17.30;71.30;;;;;;4995104;28;20038;-22
2022/11/13 04:24:59;;;;;;;0.90;0.90;;;17.30;71.40;;;;;;4991006;28;20425;-22
2022/11/13 04:27:25;;;;;;;1.00;1.00;;;17.30;72.30;;;;;;4986980;28;20050;-21
2022/11/13 04:29:50;;;;;;;1.15;1.10;;;17.30;71.50;;;;;;5004915;28;20100;-22
2022/11/13 04:32:16;;;;;;;0.90;0.90;;;17.30;71.60;;;;;;4994508;28;20042;-22
2022/11/13 04:34:41;;;;;;;0.80;0.80;;;17.30;71.50;;;;;;4989259;28;20046;-21
2022/11/13 04:37:07;;;;;;;0.80;0.80;;;17.30;71.60;;;;;;4993341;28;20079;-21
2022/11/13 04:39:33;;;;;;;1.00;1.00;;;17.30;71.50;;;;;;5014072;28;20575;-26
2022/11/13 04:44:42;;;;;;;0.80;0.80;;;17.30;71.40;;;;;;5001442;28;20071;-21
2022/11/13 04:47:08;;;;;;;0.90;0.90;;;17.30;71.30;;;;;;5012282;28;20510;-21
2022/11/13 04:49:33;;;;;;;0.68;0.68;;;17.30;71.40;;;;;;5012155;28;20064;-21
2022/11/13 04:51:59;;;;;;;0.85;0.85;;;17.30;71.40;;;;;;5016920;28;20129;-21
2022/11/13 04:54:24;;;;;;;0.90;0.90;;;17.30;72.20;;;;;;5005186;28;20095;-22
2022/11/13 04:56:50;;;;;;;0.88;0.88;;;17.30;71.40;;;;;;5015162;28;20039;-21
2022/11/13 04:59:16;;;;;;;0.90;0.90;;;17.20;71.40;;;;;;5005733;28;20097;-23
2022/11/13 05:01:41;;;;;;;0.90;0.90;;;17.20;71.50;;;;;;5013815;28;20360;-21
2022/11/13 05:04:11;;;;;;;0.95;0.95;;;17.20;71.30;;;;;;5006349;28;20034;-22
2022/11/13 05:06:37;;;;;;;0.80;0.80;;;17.20;71.40;;;;;;5012678;28;20038;-25
2022/11/13 05:09:03;;;;;;;0.80;0.80;;;17.30;71.40;;;;;;5008107;28;20065;-24
2022/11/13 05:11:28;;;;;;;0.80;0.80;;;17.20;71.50;;;;;;5017364;28;20451;-23
2022/11/13 05:13:54;;;;;;;0.80;0.80;;;17.20;71.30;;;;;;5007564;28;20037;-22
2022/11/13 05:16:19;;;;;;;0.70;0.70;;;17.20;71.30;;;;;;5008629;28;20046;-21
2022/11/13 05:18:45;;;;;;;0.80;0.80;;;17.20;71.40;;;;;;4993289;28;20695;-22
2022/11/13 05:21:10;;;;;;;1.10;1.10;;;17.30;71.40;;;;;;5012726;28;20308;-28
2022/11/13 05:23:36;;;;;;;0.90;0.90;;;17.20;71.40;;;;;;5013981;28;20046;-25
2022/11/13 05:26:06;;;;;;;0.90;0.90;;;17.30;71.30;;;;;;5009971;28;20133;-27
2022/11/13 05:28:32;;;;;;;0.68;0.68;;;17.20;71.40;;;;;;4992401;28;20381;-21
2022/11/13 05:31:08;;;;;;;1.00;1.00;;;17.20;71.30;;;;;;4997430;28;21028;-21
2022/11/13 05:33:34;;;;;;;0.85;0.85;;;17.20;71.30;;;;;;4990592;28;20042;-21
2022/11/13 05:36:07;;;;;;;1.05;1.05;;;17.30;71.20;;;;;;5008411;28;20422;-21
2022/11/13 05:38:33;;;;;;;0.75;0.75;;;17.30;71.20;;;;;;4995866;28;20050;-26
2022/11/13 05:41:07;;;;;;;0.70;0.70;;;17.30;71.40;;;;;;5002359;28;20049;-23
2022/11/13 05:43:33;;;;;;;0.90;0.90;;;17.20;71.30;;;;;;5004060;28;20050;-21
2022/11/13 05:46:03;;;;;;;0.65;0.65;;;17.20;71.30;;;;;;5017595;28;20041;-22
2022/11/13 05:48:29;;;;;;;0.70;0.70;;;17.20;71.40;;;;;;5013927;28;20506;-21
2022/11/13 05:51:03;;;;;;;0.90;0.90;;;17.20;71.40;;;;;;4992914;28;20049;-30
2022/11/13 05:53:28;;;;;;;0.70;0.70;;;17.20;72.20;;;;;;4990928;28;20038;-22
2022/11/13 05:55:54;;;;;;;1.10;0.90;;;17.20;71.30;;;;;;4995525;28;20077;-26
2022/11/13 05:58:19;;;;;;;0.70;0.70;;;17.20;71.30;;;;;;4989577;28;20422;-27
2022/11/13 06:00:45;;;;;;;0.82;0.82;;;17.20;71.40;;;;;;4995897;28;20045;-22
2022/11/13 06:03:11;;;;;;;0.85;0.85;;;17.20;71.30;;;;;;5000211;28;20076;-27
2022/11/13 06:05:36;;;;;;;0.68;0.68;;;17.20;71.50;;;;;;4996043;28;20038;-22
2022/11/13 06:08:02;;;;;;;0.70;0.70;;;17.20;71.40;;;;;;5001195;28;20077;-21
2022/11/13 06:10:27;;;;;;;0.70;0.70;;;17.20;71.30;;;;;;4994888;28;20562;-22
2022/11/13 06:12:53;;;;;;;1.27;1.17;;;17.20;71.30;;;;;;4992441;28;20065;-21
2022/11/13 06:15:19;;;;;;;0.70;0.70;;;17.20;71.50;;;;;;4992417;28;20049;-21
2022/11/13 06:17:45;;;;;;;0.70;0.70;;;17.20;71.40;;;;;;4989197;28;20042;-21
2022/11/13 06:20:10;;;;;;;1.02;1.02;;;17.20;72.00;;;;;;4989835;28;20104;-22
2022/11/13 06:22:36;;;;;;;0.85;0.85;;;17.20;72.00;;;;;;5013651;28;20030;-28
2022/11/13 06:25:02;;;;;;;0.70;0.70;;;17.30;71.20;;;;;;5022744;28;20064;-22
2022/11/13 06:27:27;;;;;;;0.80;0.80;;;17.20;71.20;;;;;;5020655;28;20041;-22
2022/11/13 06:29:53;;;;;;;0.90;0.90;;;17.20;71.10;;;;;;5021817;28;20037;-22
2022/11/13 06:32:18;;;;;;;0.90;0.90;;;17.20;71.20;;;;;;5019701;28;20029;-23
2022/11/13 06:34:44;;;;;;;0.80;0.80;;;17.20;71.90;;;;;;5016461;28;20045;-22
2022/11/13 06:37:09;;;;;;;0.70;0.70;;;17.20;71.30;;;;;;5013365;28;20046;-23
2022/11/13 06:39:35;;;;;;;0.80;0.80;;;17.20;71.20;;;;;;5017040;28;20433;-24
2022/11/13 06:42:00;;;;;;;1.95;0.90;;;17.20;71.20;;;;;;5021297;28;20049;-21
2022/11/13 06:44:26;;;;;;;0.80;0.80;;;17.20;71.20;;;;;;5016520;28;20041;-22
2022/11/13 06:46:51;;;;;;;1.00;1.00;;;17.20;71.10;;;;;;5018846;28;20417;-21
2022/11/13 06:49:17;;;;;;;0.65;0.65;;;17.20;71.20;;;;;;5015001;28;20045;-22
2022/11/13 06:51:43;;;;;;;0.93;0.90;;;17.20;71.30;;;;;;5016007;28;20053;-24
2022/11/13 06:54:08;;;;;;;0.60;0.60;;;17.20;71.20;;;;;;5012935;28;20041;-28
2022/11/13 06:56:34;;;;;;;0.90;0.90;;;17.20;71.30;;;;;;5019252;28;20049;-22
2022/11/13 06:58:59;;;;;;;1.00;1.00;;;17.10;71.20;;;;;;5020312;28;20095;-21
2022/11/13 07:01:25;;;;;;;0.77;0.77;;;17.20;72.10;;;;;;5024488;28;20072;-21
2022/11/13 07:03:51;;;;;;;1.15;0.70;;;17.20;71.20;;;;;;5016206;28;20033;-21
2022/11/13 07:06:19;;;;;;;0.80;0.80;;;17.20;71.20;;;;;;5007171;28;20046;-22
2022/11/13 07:08:45;;;;;;;0.80;0.80;;;17.10;71.10;;;;;;5016590;28;20061;-22
2022/11/13 07:11:13;;;;;;;0.70;0.70;;;17.20;71.20;;;;;;5021390;28;20402;-21
2022/11/13 07:13:39;;;;;;;0.75;0.75;;;17.10;71.20;;;;;;5015297;28;20041;-22
2022/11/13 07:16:05;;;;;;;0.68;0.68;;;17.10;71.20;;;;;;5010481;28;20104;-26
2022/11/13 07:18:31;;;;;;;0.70;0.70;;;17.20;71.20;;;;;;5011257;28;20461;-22
2022/11/13 07:20:57;;;;;;;0.73;0.73;;;17.20;71.30;;;;;;5012109;28;20094;-24
2022/11/13 07:23:23;;;;;;;0.68;0.68;;;17.20;71.20;;;;;;5008745;28;20042;-25
2022/11/13 07:25:51;;;;;;;0.60;0.60;;;17.20;71.00;;;;;;5012155;28;20430;-24
2022/11/13 07:28:16;;;;;;;0.80;0.80;;;17.20;71.10;;;;;;5011756;28;20045;-23
2022/11/13 07:30:42;;;;;;;0.75;0.75;;;17.20;71.10;;;;;;5013059;28;20083;-21
2022/11/13 07:33:07;;;;;;;1.17;1.00;;;17.20;71.10;;;;;;5014048;28;20494;-28
2022/11/13 07:35:33;;;;;;;0.70;0.70;;;17.20;71.00;;;;;;5014830;28;20133;-22
2022/11/13 07:37:58;;;;;;;0.82;0.82;;;17.20;71.20;;;;;;5017811;28;20046;-21
2022/11/13 07:40:24;;;;;;;0.60;0.60;;;17.20;71.10;;;;;;5016444;28;20048;-21
2022/11/13 07:42:59;;;;;;;0.68;0.68;;;17.20;71.10;;;;;;5018009;28;20034;-21
2022/11/13 07:45:26;;;;;;;0.93;0.93;;;17.20;71.20;;;;;;5009809;28;20132;-22
2022/11/13 07:47:56;;;;;;;0.95;0.95;;;17.20;71.10;;;;;;5009784;28;20133;-21
2022/11/13 07:50:22;;;;;;;3.97;0.90;;;17.20;70.90;;;;;;5009694;28;20053;-23
2022/11/13 07:52:47;;;;;;;0.60;0.60;;;17.20;71.30;;;;;;5006544;28;20060;-21
2022/11/13 07:55:13;;;;;;;0.90;0.90;;;17.10;71.20;;;;;;5013548;28;20048;-22
2022/11/13 07:57:39;;;;;;;0.68;0.68;;;17.20;71.30;;;;;;4998045;28;20499;-22
2022/11/13 08:00:05;;;;;;;0.77;0.77;;;17.20;71.10;;;;;;5003572;28;20049;-22
2022/11/13 08:02:30;;;;;;;0.73;0.73;;;17.20;71.00;;;;;;5010039;28;20104;-22
2022/11/13 08:04:56;;;;;;;0.90;0.90;;;17.20;71.90;;;;;;5008348;28;20594;-26
2022/11/13 08:07:21;;;;;;;0.70;0.70;;;17.20;71.20;;;;;;4983203;28;20076;-25
2022/11/13 08:09:47;;;;;;;0.77;0.77;;;17.20;71.10;;;;;;4984481;28;20403;-22
2022/11/13 08:12:13;;;;;;;0.88;0.88;;;17.20;71.30;;;;;;4982177;28;20242;-22
2022/11/13 08:14:38;;;;;;;0.77;0.77;;;17.20;71.10;;;;;;4988467;28;20038;-23
2022/11/13 08:17:04;;;;;;;0.80;0.80;;;17.20;71.70;;;;;;4994053;28;20050;-21
2022/11/13 08:19:29;;;;;;;0.70;0.70;;;17.20;70.90;;;;;;4991597;28;20070;-30
2022/11/13 08:21:55;;;;;;;0.93;0.93;;;17.20;71.30;;;;;;4992192;28;20574;-21
2022/11/13 08:24:20;;;;;;;0.90;0.90;;;17.20;71.30;;;;;;4990536;28;20164;-30
2022/11/13 08:26:46;;;;;;;0.80;0.80;;;17.20;71.20;;;;;;4983618;28;20050;-22
2022/11/13 08:29:11;;;;;;;0.73;0.73;;;17.20;71.20;;;;;;4991269;28;20035;-21
2022/11/13 08:31:37;;;;;;;0.68;0.68;;;17.20;71.30;;;;;;4995730;28;20046;-19
2022/11/13 08:34:03;;;;;;;0.60;0.60;;;17.20;71.10;;;;;;5037977;28;20118;-22
2022/11/13 08:36:28;;;;;;;0.73;0.73;;;17.20;71.00;;;;;;5004388;28;20763;-23
2022/11/13 08:38:54;;;;;;;0.70;0.70;;;17.20;71.00;;;;;;5013171;28;20057;-22
2022/11/13 08:41:19;;;;;;;0.70;0.70;;;17.20;71.10;;;;;;5002521;28;20487;-21
2022/11/13 08:43:45;;;;;;;0.52;0.52;;;17.20;71.10;;;;;;5014154;28;20113;-22
2022/11/13 08:46:10;;;;;;;0.70;0.70;;;17.20;71.20;;;;;;5011999;28;20039;-21
2022/11/13 08:48:37;;;;;;;0.60;0.60;;;17.30;70.80;;;;;;5002867;28;20043;-22
2022/11/13 08:51:02;;;;;;;0.95;0.95;;;17.20;70.90;;;;;;5007978;28;20443;-22
2022/11/13 08:53:28;;;;;;;0.70;0.70;;;17.20;71.00;;;;;;5010554;28;20127;-23
2022/11/13 08:55:53;;;;;;;0.60;0.60;;;17.20;71.00;;;;;;5013106;28;20563;-21
2022/11/13 08:58:19;;;;;;;0.57;0.57;;;17.20;71.90;;;;;;5010500;28;20037;-22
2022/11/13 09:00:45;;;;;;;1.75;0.60;;;17.20;71.10;;;;;;5005822;28;20410;-21
2022/11/13 09:03:11;;;;;;;0.80;0.80;;;17.20;71.10;;;;;;5017487;28;20084;-21
2022/11/13 09:05:36;;;;;;;0.77;0.77;;;17.10;71.10;;;;;;4658251;28;10000120;-22
2022/11/13 09:08:02;;;;;;;0.73;0.73;;;17.10;71.10;;;;;;5005019;28;20050;-21
2022/11/13 09:10:28;;;;;;;0.60;0.60;;;17.10;71.20;;;;;;4996152;28;20046;-30
2022/11/13 09:13:02;;;;;;;0.65;0.65;;;17.10;71.20;;;;;;4634101;28;10000443;-22
2022/11/13 09:15:28;;;;;;;0.70;0.70;;;17.10;71.00;;;;;;5004059;28;20049;-22
2022/11/13 09:18:01;;;;;;;0.50;0.50;;;17.10;71.10;;;;;;4989051;28;20053;-21
2022/11/13 09:20:27;;;;;;;0.63;0.63;;;17.20;71.00;;;;;;5011024;28;20053;-22
2022/11/13 09:23:00;;;;;;;0.80;0.80;;;17.10;71.10;;;;;;5011893;28;20041;-21
2022/11/13 09:25:26;;;;;;;0.70;0.70;;;17.20;71.40;;;;;;5005551;28;20042;-23
2022/11/13 09:27:56;;;;;;;0.85;0.85;;;17.20;71.20;;;;;;5007177;28;20045;-21
2022/11/13 09:30:22;;;;;;;0.70;0.70;;;17.20;71.40;;;;;;5000799;28;20099;-21
2022/11/13 09:32:51;;;;;;;0.80;0.80;;;17.20;71.30;;;;;;4980425;28;20043;-22
2022/11/13 09:35:32;;;;;;;0.80;0.80;;;17.20;71.30;;;;;;4989466;28;20468;-21
2022/11/13 09:37:58;;;;;;;2.47;0.70;;;17.20;71.30;;;;;;4987123;28;20053;-21
2022/11/13 09:40:28;;;;;;;0.70;0.70;;;17.20;71.20;;;;;;4990231;28;20088;-21
2022/11/13 09:42:54;;;;;;;0.75;0.75;;;17.30;71.10;;;;;;4989155;28;20042;-21
2022/11/13 09:45:19;;;;;;;0.60;0.60;;;17.30;70.70;;;;;;4988127;28;20758;-22
2022/11/13 09:47:45;;;;;;;1.20;0.95;;;17.30;70.90;;;;;;4985658;28;20042;-22
2022/11/13 09:50:10;;;;;;;0.90;0.90;;;17.30;70.80;;;;;;5004401;28;20137;-21
2022/11/13 09:52:37;;;;;;;0.63;0.63;;;17.30;71.00;;;;;;4994085;28;20038;-22
2022/11/13 09:55:03;;;;;;;0.60;0.60;;;17.30;72.00;;;;;;5001944;28;20050;-24
2022/11/13 09:58:06;;;;;;;0.73;0.73;;;17.30;71.10;;;;;;4995250;28;20660;-22
2022/11/13 10:00:32;;;;;;;1.27;0.80;;;17.30;71.10;;;;;;5014722;28;20018;-22
2022/11/13 10:03:20;;;;;;;0.70;0.70;;;17.30;71.00;;;;;;5004454;28;20057;-23
2022/11/13 10:06:12;;;;;;;0.60;0.60;;;17.30;71.00;;;;;;4992705;28;20491;-21
2022/11/13 10:08:46;;;;;;;0.50;0.50;;;17.30;71.10;;;;;;4997211;28;20037;-21
2022/11/13 10:11:43;;;;;;;0.60;0.60;;;17.30;71.00;;;;;;4975637;28;20061;-22
2022/11/13 10:14:17;;;;;;;0.60;0.60;;;17.40;70.80;;;;;;4984445;28;20054;-21
2022/11/13 10:16:56;;;;;;;0.68;0.68;;;17.40;70.90;;;;;;4977708;28;20861;-26
2022/11/13 10:19:37;;;;;;;0.80;0.80;;;17.40;71.00;;;;;;4989267;28;20133;-21
2022/11/13 10:22:16;;;;;;;0.85;0.85;;;17.40;71.00;;;;;;4982105;28;20610;-22
2022/11/13 10:24:42;;;;;;;0.77;0.77;;;17.40;70.90;;;;;;5000431;28;20038;-21
2022/11/13 10:27:12;;;;;;;0.80;0.80;;;17.50;70.80;;;;;;4986110;28;20117;-21
2022/11/13 10:29:37;;;;;;;0.70;0.70;;;17.40;70.70;;;;;;4993822;28;20125;-21
2022/11/13 10:32:32;;;;;;;0.75;0.75;;;17.40;70.80;;;;;;4984645;28;20145;-21
2022/11/13 10:35:07;;;;;;;0.60;0.60;;;17.50;70.70;;;;;;5002320;28;20042;-22
2022/11/13 10:38:01;;;;;;;0.73;0.73;;;17.50;70.30;;;;;;5015436;28;20402;-21
2022/11/13 10:40:37;;;;;;;0.73;0.73;;;17.50;70.50;;;;;;5008289;28;20050;-22
2022/11/13 10:43:16;;;;;;;0.80;0.80;;;17.70;70.20;;;;;;5001268;28;20049;-21
2022/11/13 10:45:42;;;;;;;1.00;1.00;;;17.70;70.10;;;;;;5004877;28;20041;-22
2022/11/13 10:48:19;;;;;;;0.70;0.70;;;17.70;70.00;;;;;;5004465;28;20518;-21
2022/11/13 10:50:52;;;;;;;1.55;0.77;;;17.70;69.90;;;;;;5009414;28;20049;-23
2022/11/13 10:53:17;;;;;;;1.02;1.02;;;17.90;69.70;;;;;;5006300;28;20551;-21
2022/11/13 10:55:43;;;;;;;0.80;0.80;;;18.00;69.10;;;;;;5010272;28;20052;-24
2022/11/13 10:58:16;;;;;;;0.65;0.65;;;18.20;68.40;;;;;;4999698;28;20507;-21
2022/11/13 11:00:46;;;;;;;0.90;0.90;;;18.30;68.00;;;;;;5008531;28;20041;-21
2022/11/13 11:03:18;;;;;;;0.80;0.80;;;18.20;68.00;;;;;;5011069;28;20545;-22
2022/11/13 11:05:54;;;;;;;0.90;0.90;;;18.20;68.30;;;;;;5003994;28;20430;-21
2022/11/13 11:08:34;;;;;;;1.05;0.60;;;18.20;68.10;;;;;;5003984;28;20050;-21
2022/11/13 11:13:45;;;;;;;0.80;0.80;;;18.20;68.40;;;;;;5007491;28;20118;-21
2022/11/13 11:16:16;;;;;;;0.70;0.70;;;18.10;68.50;;;;;;5000046;28;20472;-21
2022/11/13 11:18:46;;;;;;;0.80;0.80;;;18.20;68.60;;;;;;5007129;28;20499;-22
2022/11/13 11:21:19;;;;;;;0.80;0.80;;;18.20;68.60;;;;;;5001445;28;20048;-21
2022/11/13 11:23:53;;;;;;;0.95;0.95;;;18.20;68.70;;;;;;5015541;28;20057;-21
2022/11/13 11:26:38;;;;;;;0.90;0.90;;;18.10;68.70;;;;;;5010198;28;20069;-22
2022/11/13 11:29:15;;;;;;;0.82;0.82;;;18.20;68.80;;;;;;5007368;28;20037;-23
2022/11/13 11:31:43;;;;;;;0.82;0.82;;;18.10;69.60;;;;;;5015696;28;20144;-22
2022/11/13 11:34:38;;;;;;;0.80;0.80;;;18.10;68.70;;;;;;5011111;28;20752;-21
2022/11/13 11:37:21;;;;;;;0.60;0.60;;;18.20;68.60;;;;;;5010784;28;20099;-21
2022/11/13 11:40:15;;;;;;;0.65;0.65;;;18.20;68.60;;;;;;5006766;28;20132;-21
2022/11/13 11:42:52;;;;;;;0.70;0.70;;;18.20;68.60;;;;;;5003268;28;20049;-21
2022/11/13 11:45:28;;;;;;;0.82;0.82;;;18.20;68.80;;;;;;5004330;28;20057;-21
2022/11/13 11:47:54;;;;;;;0.75;0.75;;;18.20;68.50;;;;;;5003283;28;20292;-25
2022/11/13 11:50:48;;;;;;;0.80;0.80;;;18.30;68.60;;;;;;5005131;28;20050;-21
2022/11/13 11:53:52;;;;;;;0.85;0.85;;;18.30;68.40;;;;;;5006045;28;20057;-22
2022/11/13 11:56:45;;;;;;;0.60;0.60;;;18.30;68.60;;;;;;4984262;28;20099;-22
2022/11/13 11:59:50;;;;;;;0.80;0.80;;;18.30;68.60;;;;;;5001729;28;20049;-22
2022/11/13 12:02:41;;;;;;;0.77;0.77;;;18.30;68.60;;;;;;5001165;28;20125;-21
2022/11/13 12:05:20;;;;;;;0.57;0.57;;;18.30;68.40;;;;;;5004508;28;20042;-20
2022/11/13 12:08:28;;;;;;;0.90;0.90;;;18.30;68.40;;;;;;5003313;28;20072;-22
2022/11/13 12:11:06;;;;;;;0.93;0.93;;;18.30;68.50;;;;;;5023470;28;21935;-21
2022/11/13 12:13:36;;;;;;;0.77;0.77;;;18.20;68.80;;;;;;5021061;28;20057;-21
2022/11/13 12:16:19;;;;;;;0.80;0.80;;;18.30;68.70;;;;;;5006553;28;20073;-23
2022/11/13 12:18:54;;;;;;;0.95;0.68;;;18.30;68.70;;;;;;5009696;28;20574;-22
2022/11/13 12:21:22;;;;;;;0.80;0.80;;;18.30;68.60;;;;;;5020348;28;20049;-21
2022/11/13 12:24:00;;;;;;;0.70;0.70;;;18.30;68.90;;;;;;5027526;28;20164;-21
2022/11/13 12:26:52;;;;;;;0.73;0.73;;;18.40;68.50;;;;;;5026355;28;20040;-22
2022/11/13 12:29:31;;;;;;;0.85;0.85;;;18.30;68.50;;;;;;5024711;28;20053;-22
2022/11/13 12:32:20;;;;;;;0.70;0.70;;;18.30;68.50;;;;;;5006169;28;20444;-22
2022/11/13 12:35:01;;;;;;;0.90;0.90;;;18.30;68.60;;;;;;4998649;28;20038;-21
2022/11/13 12:37:46;;;;;;;1.20;0.90;;;18.40;68.60;;;;;;5016714;28;20065;-21
2022/11/13 12:40:25;;;;;;;0.70;0.70;;;18.40;68.30;;;;;;5022139;28;20037;-22
2022/11/13 12:42:54;;;;;;;0.60;0.60;;;18.50;68.30;;;;;;5006508;28;20046;-14
2022/11/13 12:45:35;;;;;;;0.60;0.60;;;18.50;68.20;;;;;;5011537;28;20139;-13
2022/11/13 12:48:27;;;;;;;0.75;0.75;;;18.50;68.20;;;;;;5021086;28;20140;-13
2022/11/13 12:51:07;;;;;;;0.90;0.90;;;18.50;68.20;;;;;;5011568;28;20053;-13
2022/11/13 12:53:44;;;;;;;1.00;1.00;;;18.40;68.40;;;;;;5021750;28;20061;-14
2022/11/13 12:56:26;;;;;;;0.85;0.85;;;18.50;68.30;;;;;;5003915;28;20631;-13
2022/11/13 12:59:18;;;;;;;0.85;0.63;;;18.50;68.30;;;;;;5002374;28;20046;-14
2022/11/13 13:02:03;;;;;;;1.42;0.93;;;18.60;68.10;;;;;;5011972;28;20034;-13
2022/11/13 13:04:49;;;;;;;1.05;1.02;;;18.60;67.90;;;;;;5007794;28;20061;-13